createdAt,value
2023-01-21T00:00:58.866Z,97248.75
2023-01-21T00:03:25.459Z,97252.25
2023-01-21T00:05:52.139Z,97256.56
2023-01-21T00:08:18.659Z,97254.94
2023-01-21T00:10:45.276Z,97254.16
2023-01-21T00:13:11.828Z,97263.66
2023-01-21T00:15:38.360Z,97256.81
2023-01-21T00:18:04.980Z,97256.84
2023-01-21T00:20:31.537Z,97256.91
2023-01-21T00:22:58.067Z,97251.72
2023-01-21T00:25:24.619Z,97250.91
2023-01-21T00:27:51.219Z,97254.41
2023-01-21T00:30:18.323Z,97244.97
2023-01-21T00:32:45.137Z,97247.53
2023-01-21T00:35:11.939Z,97251.06
2023-01-21T00:37:38.620Z,97255.31
2023-01-21T00:40:06.569Z,97248.47
2023-01-21T00:42:33.119Z,97252.00
2023-01-21T00:45:00.111Z,97255.50
2023-01-21T00:47:26.794Z,97262.34
2023-01-21T00:49:53.321Z,97257.25
2023-01-21T00:52:19.839Z,97262.44
2023-01-21T00:54:46.683Z,97254.72
2023-01-21T00:57:13.967Z,97265.09
2023-01-21T00:59:40.900Z,97276.28
2023-01-21T01:02:08.110Z,97275.41
2023-01-21T01:04:34.773Z,97275.44
2023-01-21T01:07:01.299Z,97273.75
2023-01-21T01:09:27.971Z,97276.28
2023-01-21T01:11:54.500Z,97278.91
2023-01-21T01:14:22.227Z,97273.75
2023-01-21T01:16:49.771Z,97273.78
2023-01-21T01:19:16.476Z,97274.66
2023-01-21T01:21:43.084Z,97278.94
2023-01-21T01:24:09.614Z,97281.53
2023-01-21T01:26:36.427Z,97284.16
2023-01-21T01:29:04.723Z,97277.25
2023-01-21T01:31:31.440Z,97282.44
2023-01-21T01:33:58.423Z,97284.16
2023-01-21T01:36:25.386Z,97274.72
2023-01-21T01:38:53.237Z,97276.44
2023-01-21T01:41:23.097Z,97281.63
2023-01-21T01:43:54.660Z,97283.34
2023-01-21T01:46:23.426Z,97285.94
2023-01-21T01:48:55.404Z,97281.56
2023-01-21T01:51:34.724Z,97285.88
2023-01-21T01:54:01.932Z,97291.00
2023-01-21T01:56:30.094Z,97297.00
2023-01-21T01:58:56.722Z,97294.34
2023-01-21T02:01:24.113Z,97295.16
2023-01-21T02:03:59.305Z,97295.97
2023-01-21T02:06:26.979Z,97289.03
2023-01-21T02:08:54.642Z,97292.47
2023-01-21T02:11:21.402Z,97291.59
2023-01-21T02:13:57.745Z,97293.28
2023-01-21T02:16:36.533Z,97290.72
2023-01-21T02:19:21.057Z,97291.53
2023-01-21T02:22:16.216Z,97292.38
2023-01-21T02:25:17.771Z,97282.06
2023-01-21T02:27:50.513Z,97282.06
2023-01-21T02:30:20.060Z,97285.56
2023-01-21T02:33:11.248Z,97283.81
2023-01-21T02:35:46.444Z,97277.91
2023-01-21T02:38:25.952Z,97279.84
2023-01-21T02:41:04.580Z,97278.34
2023-01-21T02:43:45.665Z,97270.81
2023-01-21T02:46:44.000Z,97274.34
2023-01-21T02:49:19.553Z,97280.69
2023-01-21T02:51:47.965Z,97282.56
2023-01-21T02:54:16.710Z,97274.94
2023-01-21T02:56:44.302Z,97283.63
2023-01-21T02:59:11.662Z,97284.50
2023-01-21T03:02:00.861Z,97281.13
2023-01-21T03:04:45.761Z,97276.06
2023-01-21T03:07:53.515Z,97275.34
2023-01-21T03:10:36.273Z,97278.03
2023-01-21T03:13:41.805Z,97285.00
2023-01-21T03:16:32.222Z,97275.59
2023-01-21T03:19:02.608Z,97279.94
2023-01-21T03:21:33.062Z,97273.13
2023-01-21T03:24:00.125Z,97279.19
2023-01-21T03:26:32.391Z,97278.34
2023-01-21T03:29:06.207Z,97273.19
2023-01-21T03:31:36.569Z,97289.53
2023-01-21T03:34:07.935Z,97283.41
2023-01-21T03:36:34.775Z,97279.00
2023-01-21T03:39:08.795Z,97282.47
2023-01-21T03:41:39.405Z,97275.53
2023-01-21T03:44:06.370Z,97276.41
2023-01-21T03:46:48.596Z,97270.38
2023-01-21T03:49:21.801Z,97281.50
2023-01-21T03:51:56.314Z,97273.81
2023-01-21T03:54:23.649Z,97272.19
2023-01-21T03:56:50.249Z,97272.25
2023-01-21T03:59:16.793Z,97274.84
2023-01-21T04:01:43.362Z,97268.00
2023-01-21T04:04:10.105Z,97267.97
2023-01-21T04:06:39.623Z,97264.50
2023-01-21T04:09:07.885Z,97270.47
2023-01-21T04:11:34.618Z,97260.94
2023-01-21T04:14:01.409Z,97265.31
2023-01-21T04:16:28.646Z,97266.25
2023-01-21T04:18:55.397Z,97268.06
2023-01-21T04:21:21.909Z,97275.03
2023-01-21T04:23:48.499Z,97266.44
2023-01-21T04:26:16.478Z,97274.28
2023-01-21T04:28:43.198Z,97276.03
2023-01-21T04:31:09.780Z,97267.47
2023-01-21T04:33:36.316Z,97279.53
2023-01-21T04:36:02.911Z,97279.53
2023-01-21T04:38:29.442Z,97272.66
2023-01-21T04:40:56.016Z,97279.47
2023-01-21T04:43:22.581Z,97278.69
2023-01-21T04:45:50.208Z,97276.13
2023-01-21T04:48:17.557Z,97267.63
2023-01-21T04:50:44.251Z,97285.78
2023-01-21T04:53:10.764Z,97282.41
2023-01-21T04:55:37.279Z,97288.50
2023-01-21T04:58:03.772Z,97297.16
2023-01-21T05:00:30.267Z,97290.34
2023-01-21T05:02:56.770Z,97288.63
2023-01-21T05:05:23.376Z,97291.13
2023-01-21T05:07:53.147Z,97284.22
2023-01-21T05:10:19.844Z,97291.88
2023-01-21T05:12:46.374Z,97290.06
2023-01-21T05:15:12.921Z,97289.13
2023-01-21T05:17:39.419Z,97290.75
2023-01-21T05:20:06.477Z,97288.97
2023-01-21T05:22:33.016Z,97291.47
2023-01-21T05:25:00.620Z,97293.97
2023-01-21T05:27:27.966Z,97295.66
2023-01-21T05:29:54.649Z,97300.78
2023-01-21T05:32:21.627Z,97297.31
2023-01-21T05:34:48.223Z,97297.25
2023-01-21T05:37:14.815Z,97292.97
2023-01-21T05:39:41.330Z,97286.06
2023-01-21T05:42:08.064Z,97290.38
2023-01-21T05:44:34.558Z,97286.94
2023-01-21T05:47:01.111Z,97287.81
2023-01-21T05:49:27.579Z,97291.25
2023-01-21T05:51:54.091Z,97297.19
2023-01-21T05:54:20.561Z,97289.47
2023-01-21T05:56:47.095Z,97303.19
2023-01-21T05:59:13.608Z,97287.66
2023-01-21T06:01:40.155Z,97295.38
2023-01-21T06:04:06.704Z,97293.63
2023-01-21T06:06:33.216Z,97291.94
2023-01-21T06:08:59.739Z,97294.47
2023-01-21T06:11:26.295Z,97291.91
2023-01-21T06:13:52.857Z,97292.75
2023-01-21T06:16:19.320Z,97297.88
2023-01-21T06:18:46.715Z,97294.41
2023-01-21T06:21:13.310Z,97301.25
2023-01-21T06:23:39.888Z,97303.00
2023-01-21T06:26:06.428Z,97305.53
2023-01-21T06:28:32.959Z,97303.81
2023-01-21T06:30:59.629Z,97311.53
2023-01-21T06:33:26.218Z,97313.19
2023-01-21T06:35:52.796Z,97304.63
2023-01-21T06:38:19.312Z,97310.66
2023-01-21T06:40:45.827Z,97319.88
2023-01-21T06:43:12.349Z,97324.88
2023-01-21T06:45:38.895Z,97325.78
2023-01-21T06:48:05.525Z,97320.66
2023-01-21T06:50:32.005Z,97331.91
2023-01-21T06:52:58.496Z,97333.66
2023-01-21T06:55:24.983Z,97325.94
2023-01-21T06:57:51.514Z,97337.16
2023-01-21T07:00:19.296Z,97334.53
2023-01-21T07:02:46.007Z,97339.69
2023-01-21T07:05:15.358Z,97338.81
2023-01-21T07:07:42.066Z,97346.53
2023-01-21T07:10:09.352Z,97340.53
2023-01-21T07:12:35.838Z,97354.28
2023-01-21T07:15:02.408Z,97356.81
2023-01-21T07:17:28.899Z,97355.91
2023-01-21T07:19:55.403Z,97357.66
2023-01-21T07:22:21.913Z,97355.06
2023-01-21T07:24:48.445Z,97363.66
2023-01-21T07:27:15.053Z,97360.19
2023-01-21T07:29:41.571Z,97359.38
2023-01-21T07:32:08.110Z,97366.25
2023-01-21T07:34:34.585Z,97357.59
2023-01-21T07:37:01.118Z,97366.22
2023-01-21T07:39:27.614Z,97357.56
2023-01-21T07:41:54.148Z,97359.31
2023-01-21T07:44:20.626Z,97367.06
2023-01-21T07:46:47.172Z,97365.31
2023-01-21T07:49:17.289Z,97362.72
2023-01-21T07:51:47.676Z,97370.47
2023-01-21T07:54:14.852Z,97371.25
2023-01-21T07:56:41.729Z,97371.25
2023-01-21T07:59:09.600Z,97371.22
2023-01-21T08:01:36.172Z,97376.38
2023-01-21T08:04:02.717Z,97380.63
2023-01-21T08:06:29.247Z,97382.31
2023-01-21T08:08:55.724Z,97383.94
2023-01-21T08:11:22.233Z,97382.97
2023-01-21T08:13:50.115Z,97376.03
2023-01-21T08:16:16.674Z,97374.19
2023-01-21T08:18:43.295Z,97374.91
2023-01-21T08:21:09.915Z,97380.84
2023-01-21T08:23:36.554Z,97375.56
2023-01-21T08:26:03.878Z,97376.25
2023-01-21T08:28:30.353Z,97376.06
2023-01-21T08:31:06.671Z,97370.69
2023-01-21T08:33:33.318Z,97370.63
2023-01-21T08:36:01.376Z,97367.78
2023-01-21T08:38:28.024Z,97375.44
2023-01-21T08:40:57.010Z,97375.25
2023-01-21T08:43:23.906Z,97375.16
2023-01-21T08:45:50.542Z,97380.97
2023-01-21T08:48:17.137Z,97382.59
2023-01-21T08:50:43.623Z,97384.94
2023-01-21T08:53:11.083Z,97382.47
2023-01-21T08:55:37.878Z,97382.09
2023-01-21T08:58:04.622Z,97384.59
2023-01-21T09:00:31.159Z,97383.53
2023-01-21T09:02:58.961Z,97388.56
2023-01-21T09:05:25.605Z,97389.44
2023-01-21T09:07:52.174Z,97394.47
2023-01-21T09:10:38.046Z,97396.97
2023-01-21T09:13:08.594Z,97397.69
2023-01-21T09:15:44.352Z,97401.25
2023-01-21T09:18:11.035Z,97396.97
2023-01-21T09:20:38.829Z,97406.50
2023-01-21T09:23:24.213Z,97397.72
2023-01-21T09:26:03.412Z,97406.13
2023-01-21T09:28:31.135Z,97411.31
2023-01-21T09:31:00.157Z,97396.63
2023-01-21T09:33:27.859Z,97404.25
2023-01-21T09:35:55.686Z,97405.19
2023-01-21T09:38:22.420Z,97405.97
2023-01-21T09:40:49.413Z,97408.47
2023-01-21T09:43:27.187Z,97411.81
2023-01-21T09:45:57.732Z,97407.41
2023-01-21T09:48:33.367Z,97409.44
2023-01-21T09:51:05.382Z,97412.03
2023-01-21T09:53:54.205Z,97415.41
2023-01-21T09:56:31.411Z,97420.59
2023-01-21T09:59:06.593Z,97417.31
2023-01-21T10:01:36.977Z,97409.53
2023-01-21T10:04:34.204Z,97415.50
2023-01-21T10:07:16.549Z,97405.06
2023-01-21T10:09:57.908Z,97405.84
2023-01-21T10:12:52.425Z,97416.13
2023-01-21T10:15:31.350Z,97410.84
2023-01-21T10:18:03.739Z,97412.44
2023-01-21T10:20:36.660Z,97404.72
2023-01-21T10:23:11.747Z,97405.59
2023-01-21T10:25:39.601Z,97409.97
2023-01-21T10:28:38.760Z,97403.00
2023-01-21T10:31:28.379Z,97408.47
2023-01-21T10:33:55.494Z,97409.16
2023-01-21T10:36:35.304Z,97408.97
2023-01-21T10:39:22.999Z,97411.53
2023-01-21T10:42:11.062Z,97404.66
2023-01-21T10:44:40.393Z,97397.69
2023-01-21T10:47:21.519Z,97398.28
2023-01-21T10:50:06.533Z,97399.84
2023-01-21T10:52:45.335Z,97399.75
2023-01-21T10:55:49.908Z,97403.13
2023-01-21T10:58:32.265Z,97396.94
2023-01-21T11:01:02.177Z,97390.94
2023-01-21T11:03:39.025Z,97393.22
2023-01-21T11:06:08.480Z,97394.94
2023-01-21T11:08:35.158Z,97388.91
2023-01-21T11:11:03.051Z,97387.00
2023-01-21T11:13:29.672Z,97390.47
2023-01-21T11:15:59.230Z,97374.50
2023-01-21T11:18:39.732Z,97379.78
2023-01-21T11:21:24.801Z,97383.13
2023-01-21T11:23:59.940Z,97383.22
2023-01-21T11:26:31.055Z,97373.56
2023-01-21T11:29:16.655Z,97381.25
2023-01-21T11:31:52.861Z,97374.22
2023-01-21T11:34:22.068Z,97378.47
2023-01-21T11:37:05.672Z,97372.00
2023-01-21T11:39:38.787Z,97375.28
2023-01-21T11:42:08.305Z,97373.56
2023-01-21T11:44:34.979Z,97372.72
2023-01-21T11:47:01.639Z,97367.94
2023-01-21T11:49:31.469Z,97363.25
2023-01-21T11:52:15.534Z,97360.56
2023-01-21T11:54:42.626Z,97362.31
2023-01-21T11:57:21.558Z,97369.31
2023-01-21T11:59:49.807Z,97364.63
2023-01-21T12:02:28.056Z,97353.31
2023-01-21T12:05:03.041Z,97355.09
2023-01-21T12:07:33.773Z,97355.13
2023-01-21T12:10:08.815Z,97345.38
2023-01-21T12:13:02.446Z,97350.53
2023-01-21T12:15:28.955Z,97347.31
2023-01-21T12:18:03.165Z,97354.38
2023-01-21T12:21:01.772Z,97354.47
2023-01-21T12:23:56.315Z,97346.69
2023-01-21T12:26:45.425Z,97349.44
2023-01-21T12:29:29.939Z,97357.22
2023-01-21T12:32:23.763Z,97352.88
2023-01-21T12:35:11.525Z,97347.72
2023-01-21T12:37:58.271Z,97341.91
2023-01-21T12:40:33.988Z,97349.38
2023-01-21T12:43:08.544Z,97348.53
2023-01-21T12:45:44.274Z,97347.66
2023-01-21T12:48:21.531Z,97349.34
2023-01-21T12:51:07.208Z,97352.03
2023-01-21T12:53:44.341Z,97345.00
2023-01-21T12:57:05.209Z,97343.41
2023-01-21T13:00:03.792Z,97348.75
2023-01-21T13:03:07.823Z,97347.09
2023-01-21T13:06:08.024Z,97344.44
2023-01-21T13:08:53.061Z,97347.19
2023-01-21T13:11:30.834Z,97346.25
2023-01-21T13:14:26.671Z,97350.50
2023-01-21T13:17:16.050Z,97351.34
2023-01-21T13:19:42.580Z,97346.31
2023-01-21T13:22:35.680Z,97350.66
2023-01-21T13:25:21.163Z,97354.03
2023-01-21T13:28:00.182Z,97355.81
2023-01-21T13:31:08.048Z,97350.78
2023-01-21T13:33:58.460Z,97344.84
2023-01-21T13:36:49.512Z,97349.28
2023-01-21T13:39:39.915Z,97346.00
2023-01-21T13:42:15.304Z,97340.06
2023-01-21T13:45:02.286Z,97348.72
2023-01-21T13:47:56.433Z,97351.44
2023-01-21T13:50:34.964Z,97350.75
2023-01-21T13:53:16.567Z,97351.69
2023-01-21T13:56:17.256Z,97353.44
2023-01-21T13:58:55.936Z,97354.38
2023-01-21T14:01:45.496Z,97351.91
2023-01-21T14:04:41.619Z,97352.84
2023-01-21T14:07:12.479Z,97355.44
2023-01-21T14:09:50.256Z,97349.41
2023-01-21T14:12:31.576Z,97351.19
2023-01-21T14:15:18.761Z,97348.56
2023-01-21T14:18:18.154Z,97352.09
2023-01-21T14:21:17.289Z,97349.53
2023-01-21T14:24:26.732Z,97354.88
2023-01-21T14:27:37.618Z,97355.75
2023-01-21T14:30:33.182Z,97354.91
2023-01-21T14:33:28.115Z,97356.75
2023-01-21T14:36:20.148Z,97360.28
2023-01-21T14:38:55.743Z,97357.69
2023-01-21T14:41:22.341Z,97362.03
2023-01-21T14:43:51.577Z,97357.03
2023-01-21T14:46:27.417Z,97357.19
2023-01-21T14:48:58.485Z,97359.88
2023-01-21T14:51:29.091Z,97355.63
2023-01-21T14:54:02.702Z,97358.28
2023-01-21T14:56:33.270Z,97369.59
2023-01-21T14:59:03.243Z,97366.19
2023-01-21T15:01:48.592Z,97363.69
2023-01-21T15:04:35.222Z,97372.41
2023-01-21T15:07:08.024Z,97370.78
2023-01-21T15:09:43.597Z,97371.63
2023-01-21T15:12:23.989Z,97376.88
2023-01-21T15:14:51.819Z,97377.78
2023-01-21T15:17:46.178Z,97382.13
2023-01-21T15:20:50.357Z,97385.66
2023-01-21T15:23:31.845Z,97381.41
2023-01-21T15:26:07.386Z,97374.69
2023-01-21T15:28:47.345Z,97379.94
2023-01-21T15:31:41.822Z,97386.81
2023-01-21T15:34:19.589Z,97392.06
2023-01-21T15:36:52.962Z,97392.16
2023-01-21T15:39:29.025Z,97401.66
2023-01-21T15:42:22.392Z,97413.69
2023-01-21T15:45:12.369Z,97404.25
2023-01-21T15:48:16.215Z,97406.88
2023-01-21T15:50:58.284Z,97402.56
2023-01-21T15:53:57.615Z,97418.97
2023-01-21T15:56:57.203Z,97417.25
2023-01-21T15:59:40.763Z,97426.78
2023-01-21T16:02:13.200Z,97419.03
2023-01-21T16:04:50.563Z,97419.00
2023-01-21T16:07:32.139Z,97427.56
2023-01-21T16:10:08.367Z,97426.78
2023-01-21T16:12:53.170Z,97422.53
2023-01-21T16:15:25.814Z,97422.53
2023-01-21T16:18:14.103Z,97416.59
2023-01-21T16:20:50.506Z,97422.69
2023-01-21T16:23:20.434Z,97431.28
2023-01-21T16:25:52.678Z,97429.69
2023-01-21T16:28:20.694Z,97429.75
2023-01-21T16:30:56.017Z,97424.66
2023-01-21T16:33:22.988Z,97428.09
2023-01-21T16:35:52.121Z,97435.91
2023-01-21T16:38:25.082Z,97438.56
2023-01-21T16:41:18.336Z,97436.00
2023-01-21T16:43:45.808Z,97450.66
2023-01-21T16:46:15.270Z,97440.28
2023-01-21T16:48:42.101Z,97436.84
2023-01-21T16:51:26.019Z,97436.72
2023-01-21T16:53:53.708Z,97446.22
2023-01-21T16:56:28.711Z,97446.28
2023-01-21T16:58:56.173Z,97449.66
2023-01-21T17:01:26.984Z,97443.66
2023-01-21T17:03:53.637Z,97449.63
2023-01-21T17:06:31.234Z,97452.22
2023-01-21T17:09:05.193Z,97453.97
2023-01-21T17:11:33.609Z,97455.69
2023-01-21T17:14:09.512Z,97453.09
2023-01-21T17:16:40.084Z,97453.13
2023-01-21T17:19:18.135Z,97450.53
2023-01-21T17:21:47.247Z,97461.75
2023-01-21T17:24:23.885Z,97460.00
2023-01-21T17:26:54.060Z,97463.50
2023-01-21T17:29:27.040Z,97465.25
2023-01-21T17:32:02.662Z,97464.41
2023-01-21T17:34:34.747Z,97463.50
2023-01-21T17:37:01.606Z,97455.75
2023-01-21T17:39:46.593Z,97460.88
2023-01-21T17:42:30.978Z,97464.28
2023-01-21T17:45:04.617Z,97463.41
2023-01-21T17:47:39.712Z,97465.16
2023-01-21T17:50:22.672Z,97470.31
2023-01-21T17:52:52.196Z,97464.28
2023-01-21T17:55:24.570Z,97465.13
2023-01-21T17:57:51.917Z,97470.28
2023-01-21T18:00:34.450Z,97474.59
2023-01-21T18:03:00.981Z,97471.13
2023-01-21T18:05:28.819Z,97477.13
2023-01-21T18:07:55.355Z,97474.59
2023-01-21T18:10:28.503Z,97475.44
2023-01-21T18:12:56.186Z,97477.13
2023-01-21T18:15:22.827Z,97486.66
2023-01-21T18:17:57.897Z,97478.09
2023-01-21T18:20:27.419Z,97468.56
2023-01-21T18:22:55.612Z,97477.28
2023-01-21T18:25:23.767Z,97478.97
2023-01-21T18:27:56.263Z,97481.53
2023-01-21T18:30:26.513Z,97478.13
2023-01-21T18:32:54.053Z,97485.91
2023-01-21T18:35:28.620Z,97484.19
2023-01-21T18:37:55.844Z,97488.50
2023-01-21T18:40:23.653Z,97480.72
2023-01-21T18:42:52.456Z,97491.94
2023-01-21T18:45:21.433Z,97492.81
2023-01-21T18:47:49.775Z,97492.88
2023-01-21T18:50:22.100Z,97494.66
2023-01-21T18:52:49.133Z,97501.53
2023-01-21T18:55:17.336Z,97504.09
2023-01-21T18:57:50.124Z,97508.47
2023-01-21T19:00:23.093Z,97502.41
2023-01-21T19:02:53.464Z,97508.47
2023-01-21T19:05:21.365Z,97505.03
2023-01-21T19:07:48.300Z,97505.03
2023-01-21T19:10:17.175Z,97505.03
2023-01-21T19:12:44.478Z,97509.34
2023-01-21T19:15:29.445Z,97506.78
2023-01-21T19:17:56.548Z,97508.56
2023-01-21T19:20:28.343Z,97510.31
2023-01-21T19:22:56.029Z,97505.19
2023-01-21T19:25:25.152Z,97507.78
2023-01-21T19:27:54.301Z,97501.72
2023-01-21T19:30:22.484Z,97497.56
2023-01-21T19:32:50.656Z,97513.09
2023-01-21T19:35:20.330Z,97497.59
2023-01-21T19:37:50.725Z,97500.13
2023-01-21T19:40:22.981Z,97508.78
2023-01-21T19:42:50.059Z,97507.09
2023-01-21T19:45:17.673Z,97501.06
2023-01-21T19:47:45.895Z,97519.16
2023-01-21T19:50:21.973Z,97513.13
2023-01-21T19:52:50.817Z,97514.91
2023-01-21T19:55:20.737Z,97516.59
2023-01-21T19:57:56.660Z,97521.81
2023-01-21T20:00:29.217Z,97523.56
2023-01-21T20:02:56.241Z,97527.03
2023-01-21T20:05:23.666Z,97529.63
2023-01-21T20:07:51.077Z,97533.06
2023-01-21T20:10:20.329Z,97530.53
2023-01-21T20:12:47.249Z,97525.34
2023-01-21T20:15:15.302Z,97518.47
2023-01-21T20:17:46.626Z,97520.22
2023-01-21T20:20:17.078Z,97522.78
2023-01-21T20:22:44.238Z,97530.53
2023-01-21T20:25:19.395Z,97525.41
2023-01-21T20:27:52.054Z,97520.28
2023-01-21T20:30:21.289Z,97528.91
2023-01-21T20:32:49.071Z,97526.38
2023-01-21T20:35:17.093Z,97522.97
2023-01-21T20:37:47.652Z,97518.69
2023-01-21T20:40:20.084Z,97519.63
2023-01-21T20:42:47.650Z,97517.97
2023-01-21T20:45:15.965Z,97515.44
2023-01-21T20:47:50.213Z,97510.25
2023-01-21T20:50:25.851Z,97516.34
2023-01-21T20:52:53.555Z,97518.97
2023-01-21T20:55:24.031Z,97519.03
2023-01-21T20:57:50.826Z,97518.22
2023-01-21T21:00:19.336Z,97517.41
2023-01-21T21:02:46.367Z,97519.19
2023-01-21T21:05:18.176Z,97517.50
2023-01-21T21:07:44.977Z,97524.38
2023-01-21T21:10:22.886Z,97526.97
2023-01-21T21:12:49.872Z,97531.31
2023-01-21T21:15:17.720Z,97536.47
2023-01-21T21:17:44.872Z,97535.63
2023-01-21T21:20:36.948Z,97528.75
2023-01-21T21:23:04.277Z,97536.50
2023-01-21T21:25:35.322Z,97522.75
2023-01-21T21:28:01.923Z,97533.09
2023-01-21T21:30:30.851Z,97532.25
2023-01-21T21:32:59.493Z,97534.88
2023-01-21T21:35:31.814Z,97536.59
2023-01-21T21:38:03.628Z,97546.06
2023-01-21T21:40:30.578Z,97543.47
2023-01-21T21:43:16.814Z,97549.47
2023-01-21T21:46:02.860Z,97545.16
2023-01-21T21:48:39.113Z,97537.44
2023-01-21T21:51:10.081Z,97538.28
2023-01-21T21:53:37.762Z,97540.81
2023-01-21T21:56:17.242Z,97540.84
2023-01-21T21:58:44.490Z,97540.84
2023-01-21T22:01:19.701Z,97540.00
2023-01-21T22:03:46.875Z,97548.59
2023-01-21T22:06:13.724Z,97552.91
2023-01-21T22:08:42.035Z,97553.81
2023-01-21T22:11:12.940Z,97561.59
2023-01-21T22:13:41.957Z,97554.78
2023-01-21T22:16:14.972Z,97556.50
2023-01-21T22:18:42.237Z,97551.31
2023-01-21T22:21:13.824Z,97553.00
2023-01-21T22:23:40.547Z,97555.53
2023-01-21T22:26:09.790Z,97558.16
2023-01-21T22:28:36.701Z,97554.69
2023-01-21T22:31:09.283Z,97558.13
2023-01-21T22:33:37.578Z,97555.56
2023-01-21T22:36:06.462Z,97557.28
2023-01-21T22:38:34.149Z,97560.72
2023-01-21T22:41:01.716Z,97559.03
2023-01-21T22:43:29.588Z,97566.78
2023-01-21T22:45:57.505Z,97562.47
2023-01-21T22:48:25.278Z,97558.16
2023-01-21T22:50:54.003Z,97548.69
2023-01-21T22:53:20.908Z,97552.19
2023-01-21T22:55:57.489Z,97547.03
2023-01-21T22:58:25.187Z,97548.75
2023-01-21T23:00:52.776Z,97546.19
2023-01-21T23:03:20.375Z,97552.19
2023-01-21T23:05:47.328Z,97541.84
2023-01-21T23:08:14.409Z,97544.47
2023-01-21T23:10:42.603Z,97548.75
2023-01-21T23:13:10.594Z,97552.22
2023-01-21T23:15:37.255Z,97544.50
2023-01-21T23:18:03.920Z,97548.78
2023-01-21T23:20:30.505Z,97554.78
2023-01-21T23:22:57.439Z,97548.78
2023-01-21T23:25:24.782Z,97546.22
2023-01-21T23:27:51.396Z,97553.06
2023-01-21T23:30:18.313Z,97553.09
2023-01-21T23:32:45.075Z,97553.94
2023-01-21T23:35:11.727Z,97549.59
2023-01-21T23:37:38.557Z,97547.84
2023-01-21T23:40:06.180Z,97557.28
2023-01-21T23:42:32.845Z,97555.53
2023-01-21T23:44:59.353Z,97550.34
2023-01-21T23:47:25.853Z,97550.34
2023-01-21T23:49:52.400Z,97552.00
2023-01-21T23:52:18.959Z,97545.09
2023-01-21T23:54:46.025Z,97553.72
2023-01-21T23:57:12.580Z,97548.53
2023-01-21T23:59:39.261Z,97554.53
